METAR Data
IDs: Format: Raw Decoded Include TAF

Data at: 1323 UTC 16 Aug 2022

KCCB 161310Z AUTO 10003KT 10SM CLR 23/11 A2984 RMK AO2
KCCB 161250Z AUTO 00000KT 10SM CLR 23/10 A2983 RMK AO2
KCCB 161230Z AUTO 02004KT 10SM CLR 23/10 A2983 RMK AO2
KCCB 161210Z AUTO 04003KT 10SM CLR 23/11 A2984 RMK AO2
KCCB 161150Z AUTO 06003KT 10SM CLR 23/11 A2985 RMK AO2
KCCB 161130Z AUTO 00000KT 10SM CLR 23/11 A2984 RMK AO2
KCCB 161110Z AUTO 00000KT 10SM CLR 23/11 A2984 RMK AO2
KCCB 161050Z AUTO 00000KT 10SM CLR 23/13 A2985 RMK AO2
KCCB 161030Z AUTO 00000KT 10SM FEW038 23/13 A2985 RMK AO2
KCCB 161010Z AUTO 00000KT 10SM SCT035 23/13 A2985 RMK AO2
KCCB 160950Z AUTO 00000KT 10SM SCT034 24/12 A2985 RMK AO2
KCCB 160930Z AUTO 04003KT 10SM CLR 23/12 A2985 RMK AO2
KCCB 160910Z AUTO 00000KT 10SM CLR 24/13 A2985 RMK AO2
KCCB 160850Z AUTO 00000KT 10SM CLR 23/13 A2986 RMK AO2
KCCB 160830Z AUTO 00000KT 10SM CLR 24/13 A2986 RMK AO2
KCCB 160810Z AUTO 00000KT 10SM CLR 24/12 A2986 RMK AO2
KCCB 160750Z AUTO 00000KT 10SM CLR 24/12 A2986 RMK AO2
KCCB 160730Z AUTO 00000KT 10SM CLR 24/12 A2986 RMK AO2
KCCB 160710Z AUTO 00000KT 9SM CLR 24/12 A2986 RMK AO2
KCCB 160650Z AUTO 31003KT 10SM CLR 24/12 A2987 RMK AO2
KCCB 160630Z AUTO 00000KT 10SM CLR 24/11 A2987 RMK AO2
KCCB 160610Z AUTO 29003KT 10SM CLR 24/11 A2988 RMK AO2
KCCB 160550Z AUTO 27005KT 10SM CLR 24/13 A2987 RMK AO2
KCCB 160530Z AUTO 27005KT 10SM CLR 24/13 A2988 RMK AO2
KCCB 160510Z AUTO 27006KT 10SM CLR 25/13 A2988 RMK AO2
KCCB 160450Z AUTO 25005KT 10SM CLR 25/13 A2988 RMK AO2
KCCB 160430Z AUTO 26006KT 10SM CLR 26/13 A2988 RMK AO2
KCCB 160410Z AUTO 26008KT 10SM CLR 26/13 A2987 RMK AO2
KCCB 160350Z AUTO 27010KT 10SM CLR 27/13 A2986 RMK AO2
KCCB 160330Z AUTO 27012KT 10SM CLR 27/13 A2985 RMK AO2
KCCB 160310Z AUTO 26012KT 10SM CLR 28/13 A2984 RMK AO2
KCCB 160250Z AUTO 27011G17KT 10SM CLR 29/12 A2984 RMK AO2
KCCB 160230Z AUTO 26012KT 10SM CLR 30/12 A2983 RMK AO2
KCCB 160210Z AUTO 27012KT 10SM CLR 30/13 A2983 RMK AO2
KCCB 160150Z AUTO 26012KT 10SM CLR 31/13 A2982 RMK AO2
KCCB 160130Z AUTO 25014KT 10SM CLR 32/13 A2982 RMK AO2
KCCB 160110Z AUTO 26011G17KT 10SM CLR 32/14 A2981 RMK AO2
KCCB 160050Z AUTO 27012KT 10SM CLR 33/14 A2981 RMK AO2
KCCB 160030Z AUTO 28011KT 10SM CLR 33/13 A2981 RMK AO2
KCCB 160010Z AUTO 27014KT 10SM CLR 34/13 A2981 RMK AO2
KCCB 152350Z AUTO 27014KT 10SM CLR 35/13 A2981 RMK AO2
KCCB 152330Z AUTO 24013G18KT 10SM CLR 34/13 A2981 RMK AO2
KCCB 152310Z AUTO 26013G19KT 10SM CLR 35/13 A2981 RMK AO2
KCCB 152250Z AUTO 26014G19KT 10SM CLR 35/13 A2982 RMK AO2
KCCB 152230Z AUTO 26011KT 240V300 10SM CLR 35/12 A2982 RMK AO2
KCCB 152210Z AUTO 28008G16KT 260V320 9SM CLR 35/13 A2983 RMK AO2
KCCB 152150Z AUTO 27012G18KT 10SM CLR 35/13 A2984 RMK AO2
KCCB 152130Z AUTO 24012KT 9SM CLR 35/13 A2985 RMK AO2
KCCB 152110Z AUTO 28009KT 9SM CLR 34/12 A2985 RMK AO2
KCCB 152050Z AUTO 26010KT 10SM CLR 34/12 A2986 RMK AO2
KCCB 152030Z AUTO 25006G13KT 10SM CLR 34/13 A2986 RMK AO2
KCCB 152010Z AUTO 8/41666708KT 9SM CLR 34/13 A2987 RMK AO2
KCCB 151950Z AUTO 26008KT 10SM CLR 33/13 A2987 RMK AO2
KCCB 151930Z AUTO VRB06KT 10SM CLR 33/13 A2988 RMK AO2
KCCB 151910Z AUTO 23005G10KT 10SM CLR 32/13 A2989 RMK AO2
KCCB 151850Z AUTO 22007KT 9SM CLR 31/13 A2989 RMK AO2
KCCB 151830Z AUTO 25006KT 10SM CLR 31/13 A2989 RMK AO2
KCCB 151810Z AUTO 26005KT 10SM CLR 30/13 A2989 RMK AO2
KCCB 151750Z AUTO 24005KT 10SM CLR 30/12 A2989 RMK AO2
KCCB 151730Z AUTO 24005KT 9SM CLR 29/12 A2989 RMK AO2
KCCB 151710Z AUTO 24004KT 9SM CLR 28/13 A2989 RMK AO2
KCCB 151650Z AUTO 21005KT 9SM CLR 27/13 A2989 RMK AO2
KCCB 151630Z AUTO 00000KT 10SM CLR 27/13 A2989 RMK AO2
KCCB 151610Z AUTO 00000KT 10SM CLR 27/11 A2989 RMK AO2
KCCB 151550Z AUTO 00000KT 10SM CLR 27/11 A2988 RMK AO2
KCCB 151530Z AUTO 00000KT 10SM CLR 26/11 A2988 RMK AO2
KCCB 151510Z AUTO 16003KT 10SM CLR 26/11 A2988 RMK AO2
KCCB 151450Z AUTO 12003KT 10SM CLR 26/11 A2988 RMK AO2
KCCB 151430Z AUTO 07003KT 10SM CLR 25/11 A2988 RMK AO2
KCCB 151410Z AUTO 05003KT 10SM CLR 24/10 A2988 RMK AO2
KCCB 151350Z AUTO 05003KT 8SM CLR 23/10 A2988 RMK AO2
KCCB 151330Z AUTO 00000KT 9SM CLR 23/10 A2988 RMK AO2
KCCB 151310Z AUTO 00000KT 10SM CLR 23/10 A2988 RMK AO2
KCCB 151250Z AUTO 02004KT 10SM CLR 23/10 A2988 RMK AO2
KCCB 151230Z AUTO 00000KT 10SM CLR 22/11 A2988 RMK AO2
KCCB 151210Z AUTO 07003KT 10SM CLR 22/11 A2988 RMK AO2
KCCB 151150Z AUTO 00000KT 10SM CLR 23/11 A2988 RMK AO2
KCCB 151130Z AUTO 00000KT 10SM CLR 24/10 A2988 RMK AO2
KCCB 151110Z AUTO 34004KT 10SM CLR 24/10 A2988 RMK AO2
KCCB 151050Z AUTO 00000KT 10SM CLR 24/10 A2989 RMK AO2
KCCB 151030Z AUTO 00000KT 10SM CLR 24/11 A2989 RMK AO2
KCCB 151010Z AUTO 00000KT 10SM CLR 24/11 A2989 RMK AO2
KCCB 150950Z AUTO 00000KT 10SM CLR 24/10 A2990 RMK AO2
KCCB 150930Z AUTO 06003KT 10SM CLR 24/10 A2990 RMK AO2
KCCB 150910Z AUTO 09003KT 10SM CLR 24/11 A2990 RMK AO2
KCCB 150850Z AUTO 07003KT 10SM CLR 24/12 A2991 RMK AO2
KCCB 150830Z AUTO VRB03KT 10SM CLR 24/12 A2991 RMK AO2
KCCB 150810Z AUTO 36003KT 10SM CLR 24/11 A2991 RMK AO2
KCCB 150750Z AUTO 00000KT 10SM CLR 24/10 A2992 RMK AO2
KCCB 150730Z AUTO 00000KT 10SM CLR 25/11 A2992 RMK AO2
KCCB 150710Z AUTO 00000KT 10SM CLR 25/10 A2992 RMK AO2
KCCB 150650Z AUTO 36004KT 10SM CLR 25/09 A2992 RMK AO2
KCCB 150630Z AUTO 35004KT 10SM CLR 25/09 A2992 RMK AO2
KCCB 150610Z AUTO 00000KT 10SM CLR 25/09 A2993 RMK AO2
KCCB 150550Z AUTO 00000KT 10SM CLR 25/10 A2992 RMK AO2
KCCB 150530Z AUTO 30004KT 10SM CLR 25/09 A2992 RMK AO2
KCCB 150510Z AUTO 26004KT 10SM CLR 26/09 A2992 RMK AO2
KCCB 150450Z AUTO 25004KT 10SM CLR 26/09 A2993 RMK AO2
KCCB 150430Z AUTO 27005KT 10SM CLR 26/09 A2992 RMK AO2
KCCB 150410Z AUTO 26006KT 10SM CLR 26/10 A2991 RMK AO2
KCCB 150350Z AUTO 27008KT 10SM CLR 27/11 A2990 RMK AO2
KCCB 150330Z AUTO 28008KT 10SM CLR 27/11 A2989 RMK AO2
KCCB 150310Z AUTO 26011KT 10SM CLR 28/11 A2989 RMK AO2
KCCB 150250Z AUTO 25013KT 10SM CLR 28/11 A2988 RMK AO2
KCCB 150230Z AUTO 25012KT 10SM CLR 29/11 A2988 RMK AO2
KCCB 150210Z AUTO 26013KT 10SM CLR 30/12 A2987 RMK AO2
KCCB 150150Z AUTO 26014KT 10SM CLR 31/12 A2988 RMK AO2
KCCB 150130Z AUTO 27012G17KT 10SM CLR 32/12 A2987 RMK AO2